Amana, Iowa
Current Conditions -  °F | °C
As of 7:52 AM on Thursday 18 Dec 2014 (Local Time) from KCID Reporting Station
Clear Clear  
Wind Chill:   Ceiling: Unl
Heat Index: 15°   Visibility: 7mi
Dew Point: 12°   Wind: 6mph
Humidity: 88%   Direction: 330°NNW
Pressure: 30.29"   Gusts: NA
Location:  41.8°N, 91.87°W
Report Text: KCID 181352Z 33005KT 7SM CLR M09/M11 A3029 RMK AO2 SLP273 T10941111
Loading
Personal Weather Stations






























Interactive Weather Map New forecast layout! Learn more

10-Day Weather Forecast

Advertisements
Track Severe Weather on mobile